sensor_id;sensor_type;location;lat;lon;timestamp;P1;durP1;ratioP1;P2;durP2;ratioP2
23952;SDS011;12163;49.316;6.092;2023-12-20T00:01:01;2.13;;;1.50;;
23952;SDS011;12163;49.316;6.092;2023-12-20T00:03:28;2.42;;;1.23;;
23952;SDS011;12163;49.316;6.092;2023-12-20T00:06:00;2.10;;;1.50;;
23952;SDS011;12163;49.316;6.092;2023-12-20T00:08:27;2.60;;;1.13;;
23952;SDS011;12163;49.316;6.092;2023-12-20T00:10:53;1.90;;;1.20;;
23952;SDS011;12163;49.316;6.092;2023-12-20T00:13:20;2.58;;;1.15;;
23952;SDS011;12163;49.316;6.092;2023-12-20T00:15:47;1.92;;;1.20;;
23952;SDS011;12163;49.316;6.092;2023-12-20T00:18:13;1.37;;;1.03;;
23952;SDS011;12163;49.316;6.092;2023-12-20T00:20:40;1.13;;;1.02;;
23952;SDS011;12163;49.316;6.092;2023-12-20T00:23:06;2.70;;;1.15;;
23952;SDS011;12163;49.316;6.092;2023-12-20T00:25:34;1.10;;;0.90;;
23952;SDS011;12163;49.316;6.092;2023-12-20T00:28:01;2.17;;;1.00;;
23952;SDS011;12163;49.316;6.092;2023-12-20T00:30:28;0.88;;;0.88;;
23952;SDS011;12163;49.316;6.092;2023-12-20T00:32:55;1.52;;;1.00;;
23952;SDS011;12163;49.316;6.092;2023-12-20T00:35:22;1.33;;;1.10;;
23952;SDS011;12163;49.316;6.092;2023-12-20T00:37:49;1.27;;;1.00;;
23952;SDS011;12163;49.316;6.092;2023-12-20T00:40:15;1.63;;;0.98;;
23952;SDS011;12163;49.316;6.092;2023-12-20T00:42:42;2.13;;;1.10;;
23952;SDS011;12163;49.316;6.092;2023-12-20T00:45:08;1.60;;;1.20;;
23952;SDS011;12163;49.316;6.092;2023-12-20T00:47:35;1.40;;;1.20;;
23952;SDS011;12163;49.316;6.092;2023-12-20T00:50:02;2.60;;;1.30;;
23952;SDS011;12163;49.316;6.092;2023-12-20T00:52:29;1.50;;;1.40;;
23952;SDS011;12163;49.316;6.092;2023-12-20T00:54:56;1.60;;;1.27;;
23952;SDS011;12163;49.316;6.092;2023-12-20T00:57:22;2.10;;;1.30;;
23952;SDS011;12163;49.316;6.092;2023-12-20T00:59:49;1.90;;;1.42;;
23952;SDS011;12163;49.316;6.092;2023-12-20T01:02:16;1.95;;;1.48;;
23952;SDS011;12163;49.316;6.092;2023-12-20T01:04:42;2.00;;;1.63;;
23952;SDS011;12163;49.316;6.092;2023-12-20T01:07:09;1.98;;;1.60;;
23952;SDS011;12163;49.316;6.092;2023-12-20T01:09:36;2.78;;;1.90;;
23952;SDS011;12163;49.316;6.092;2023-12-20T01:12:02;2.00;;;1.80;;
23952;SDS011;12163;49.316;6.092;2023-12-20T01:14:29;3.70;;;1.98;;
23952;SDS011;12163;49.316;6.092;2023-12-20T01:16:55;2.40;;;1.90;;
23952;SDS011;12163;49.316;6.092;2023-12-20T01:19:22;2.30;;;2.10;;
23952;SDS011;12163;49.316;6.092;2023-12-20T01:21:50;2.63;;;2.05;;
23952;SDS011;12163;49.316;6.092;2023-12-20T01:24:17;2.55;;;2.30;;
23952;SDS011;12163;49.316;6.092;2023-12-20T01:26:43;2.25;;;2.05;;
23952;SDS011;12163;49.316;6.092;2023-12-20T01:29:10;2.47;;;2.22;;
23952;SDS011;12163;49.316;6.092;2023-12-20T01:31:36;2.60;;;2.40;;
23952;SDS011;12163;49.316;6.092;2023-12-20T01:34:03;2.90;;;2.70;;
23952;SDS011;12163;49.316;6.092;2023-12-20T01:36:29;3.00;;;2.70;;
23952;SDS011;12163;49.316;6.092;2023-12-20T01:38:56;3.10;;;2.80;;
23952;SDS011;12163;49.316;6.092;2023-12-20T01:41:22;5.78;;;3.10;;
23952;SDS011;12163;49.316;6.092;2023-12-20T01:43:49;3.65;;;3.15;;
23952;SDS011;12163;49.316;6.092;2023-12-20T01:46:17;3.25;;;2.95;;
23952;SDS011;12163;49.316;6.092;2023-12-20T01:48:47;3.75;;;3.35;;
23952;SDS011;12163;49.316;6.092;2023-12-20T01:51:15;3.97;;;3.60;;
23952;SDS011;12163;49.316;6.092;2023-12-20T01:53:41;4.05;;;3.65;;
23952;SDS011;12163;49.316;6.092;2023-12-20T01:56:09;5.30;;;3.70;;
23952;SDS011;12163;49.316;6.092;2023-12-20T01:58:37;4.18;;;3.78;;
23952;SDS011;12163;49.316;6.092;2023-12-20T02:01:08;4.20;;;3.80;;
23952;SDS011;12163;49.316;6.092;2023-12-20T02:03:35;4.15;;;3.75;;
23952;SDS011;12163;49.316;6.092;2023-12-20T02:06:03;4.30;;;3.90;;
23952;SDS011;12163;49.316;6.092;2023-12-20T02:08:31;4.70;;;4.30;;
23952;SDS011;12163;49.316;6.092;2023-12-20T02:10:57;4.90;;;4.40;;
23952;SDS011;12163;49.316;6.092;2023-12-20T02:13:24;5.68;;;4.32;;
23952;SDS011;12163;49.316;6.092;2023-12-20T02:15:53;5.93;;;4.83;;
23952;SDS011;12163;49.316;6.092;2023-12-20T02:18:21;5.00;;;4.50;;
23952;SDS011;12163;49.316;6.092;2023-12-20T02:20:48;5.40;;;4.90;;
23952;SDS011;12163;49.316;6.092;2023-12-20T02:23:14;5.40;;;4.90;;
23952;SDS011;12163;49.316;6.092;2023-12-20T02:25:41;5.05;;;4.65;;
23952;SDS011;12163;49.316;6.092;2023-12-20T02:28:07;4.88;;;4.32;;
23952;SDS011;12163;49.316;6.092;2023-12-20T02:30:34;4.93;;;4.43;;
23952;SDS011;12163;49.316;6.092;2023-12-20T02:33:01;5.20;;;4.75;;
23952;SDS011;12163;49.316;6.092;2023-12-20T02:35:34;5.35;;;4.88;;
23952;SDS011;12163;49.316;6.092;2023-12-20T02:38:00;5.05;;;4.55;;
23952;SDS011;12163;49.316;6.092;2023-12-20T02:40:27;5.60;;;5.10;;
23952;SDS011;12163;49.316;6.092;2023-12-20T02:42:53;5.50;;;4.78;;
23952;SDS011;12163;49.316;6.092;2023-12-20T02:45:20;5.55;;;5.05;;
23952;SDS011;12163;49.316;6.092;2023-12-20T02:47:46;5.50;;;5.00;;
23952;SDS011;12163;49.316;6.092;2023-12-20T02:50:14;6.05;;;5.35;;
23952;SDS011;12163;49.316;6.092;2023-12-20T02:52:40;6.13;;;5.53;;
23952;SDS011;12163;49.316;6.092;2023-12-20T02:55:09;6.00;;;5.47;;
23952;SDS011;12163;49.316;6.092;2023-12-20T02:57:35;5.65;;;5.15;;
23952;SDS011;12163;49.316;6.092;2023-12-20T03:00:02;6.63;;;5.00;;
23952;SDS011;12163;49.316;6.092;2023-12-20T03:02:29;5.00;;;4.50;;
23952;SDS011;12163;49.316;6.092;2023-12-20T03:04:56;6.05;;;4.88;;
23952;SDS011;12163;49.316;6.092;2023-12-20T03:07:23;4.93;;;4.53;;
23952;SDS011;12163;49.316;6.092;2023-12-20T03:09:49;4.95;;;4.45;;
23952;SDS011;12163;49.316;6.092;2023-12-20T03:12:36;5.30;;;3.80;;
23952;SDS011;12163;49.316;6.092;2023-12-20T03:15:02;4.15;;;3.70;;
23952;SDS011;12163;49.316;6.092;2023-12-20T03:17:29;4.03;;;3.60;;
23952;SDS011;12163;49.316;6.092;2023-12-20T03:19:56;3.50;;;3.20;;
23952;SDS011;12163;49.316;6.092;2023-12-20T03:22:22;3.60;;;3.30;;
23952;SDS011;12163;49.316;6.092;2023-12-20T03:24:49;3.70;;;2.85;;
23952;SDS011;12163;49.316;6.092;2023-12-20T03:27:15;3.08;;;2.78;;
23952;SDS011;12163;49.316;6.092;2023-12-20T03:29:42;4.00;;;3.13;;
23952;SDS011;12163;49.316;6.092;2023-12-20T03:32:08;2.80;;;2.60;;
23952;SDS011;12163;49.316;6.092;2023-12-20T03:34:35;2.95;;;2.70;;
23952;SDS011;12163;49.316;6.092;2023-12-20T03:37:02;2.65;;;2.40;;
23952;SDS011;12163;49.316;6.092;2023-12-20T03:39:28;3.05;;;2.75;;
23952;SDS011;12163;49.316;6.092;2023-12-20T03:41:55;3.92;;;2.80;;
23952;SDS011;12163;49.316;6.092;2023-12-20T03:44:21;2.92;;;2.70;;
23952;SDS011;12163;49.316;6.092;2023-12-20T03:46:48;3.22;;;2.50;;
23952;SDS011;12163;49.316;6.092;2023-12-20T03:49:15;3.63;;;2.63;;
23952;SDS011;12163;49.316;6.092;2023-12-20T03:51:41;3.63;;;2.72;;
23952;SDS011;12163;49.316;6.092;2023-12-20T03:54:09;4.82;;;2.97;;
23952;SDS011;12163;49.316;6.092;2023-12-20T03:56:35;5.30;;;2.70;;
23952;SDS011;12163;49.316;6.092;2023-12-20T03:59:02;6.17;;;2.80;;
23952;SDS011;12163;49.316;6.092;2023-12-20T04:01:28;6.65;;;2.70;;
23952;SDS011;12163;49.316;6.092;2023-12-20T04:03:55;5.75;;;3.17;;
23952;SDS011;12163;49.316;6.092;2023-12-20T04:06:22;6.35;;;2.55;;
23952;SDS011;12163;49.316;6.092;2023-12-20T04:08:48;8.00;;;2.65;;
23952;SDS011;12163;49.316;6.092;2023-12-20T04:11:15;10.73;;;2.75;;
23952;SDS011;12163;49.316;6.092;2023-12-20T04:13:41;8.07;;;2.42;;
23952;SDS011;12163;49.316;6.092;2023-12-20T04:16:08;7.80;;;2.35;;
23952;SDS011;12163;49.316;6.092;2023-12-20T04:18:34;6.85;;;2.42;;
23952;SDS011;12163;49.316;6.092;2023-12-20T04:21:01;10.32;;;2.40;;
23952;SDS011;12163;49.316;6.092;2023-12-20T04:23:28;13.30;;;2.70;;
23952;SDS011;12163;49.316;6.092;2023-12-20T04:25:54;10.60;;;2.97;;
23952;SDS011;12163;49.316;6.092;2023-12-20T04:28:21;14.35;;;2.97;;
23952;SDS011;12163;49.316;6.092;2023-12-20T04:30:47;9.40;;;2.92;;
23952;SDS011;12163;49.316;6.092;2023-12-20T04:33:14;8.40;;;2.45;;
23952;SDS011;12163;49.316;6.092;2023-12-20T04:35:41;11.30;;;3.10;;
23952;SDS011;12163;49.316;6.092;2023-12-20T04:38:09;14.23;;;2.65;;
23952;SDS011;12163;49.316;6.092;2023-12-20T04:40:35;11.55;;;2.60;;
23952;SDS011;12163;49.316;6.092;2023-12-20T04:43:02;11.50;;;2.63;;
23952;SDS011;12163;49.316;6.092;2023-12-20T04:45:28;13.45;;;2.65;;
23952;SDS011;12163;49.316;6.092;2023-12-20T04:47:55;14.70;;;3.00;;
23952;SDS011;12163;49.316;6.092;2023-12-20T04:50:21;13.25;;;2.70;;
23952;SDS011;12163;49.316;6.092;2023-12-20T04:52:48;13.93;;;2.65;;
23952;SDS011;12163;49.316;6.092;2023-12-20T04:55:15;11.30;;;2.58;;
23952;SDS011;12163;49.316;6.092;2023-12-20T04:57:41;11.45;;;2.65;;
23952;SDS011;12163;49.316;6.092;2023-12-20T05:00:09;13.48;;;2.90;;
23952;SDS011;12163;49.316;6.092;2023-12-20T05:02:36;11.80;;;3.13;;
23952;SDS011;12163;49.316;6.092;2023-12-20T05:05:03;16.50;;;3.37;;
23952;SDS011;12163;49.316;6.092;2023-12-20T05:07:30;11.35;;;2.75;;
23952;SDS011;12163;49.316;6.092;2023-12-20T05:09:56;13.40;;;2.95;;
23952;SDS011;12163;49.316;6.092;2023-12-20T05:12:23;10.57;;;2.78;;
23952;SDS011;12163;49.316;6.092;2023-12-20T05:14:50;11.55;;;2.80;;
23952;SDS011;12163;49.316;6.092;2023-12-20T05:17:18;14.43;;;2.75;;
23952;SDS011;12163;49.316;6.092;2023-12-20T05:19:46;14.07;;;3.13;;
23952;SDS011;12163;49.316;6.092;2023-12-20T05:22:13;13.07;;;2.77;;
23952;SDS011;12163;49.316;6.092;2023-12-20T05:24:39;13.18;;;3.15;;
23952;SDS011;12163;49.316;6.092;2023-12-20T05:27:06;14.15;;;2.67;;
23952;SDS011;12163;49.316;6.092;2023-12-20T05:29:32;11.00;;;2.75;;
23952;SDS011;12163;49.316;6.092;2023-12-20T05:31:59;14.07;;;2.70;;
23952;SDS011;12163;49.316;6.092;2023-12-20T05:34:25;13.52;;;2.97;;
23952;SDS011;12163;49.316;6.092;2023-12-20T05:36:52;13.35;;;3.17;;
23952;SDS011;12163;49.316;6.092;2023-12-20T05:39:19;14.80;;;3.47;;
23952;SDS011;12163;49.316;6.092;2023-12-20T05:41:45;12.70;;;3.08;;
23952;SDS011;12163;49.316;6.092;2023-12-20T05:44:12;15.37;;;3.30;;
23952;SDS011;12163;49.316;6.092;2023-12-20T05:46:38;16.27;;;3.35;;
23952;SDS011;12163;49.316;6.092;2023-12-20T05:49:06;13.07;;;3.47;;
23952;SDS011;12163;49.316;6.092;2023-12-20T05:51:33;7.82;;;2.00;;
23952;SDS011;12163;49.316;6.092;2023-12-20T05:53:59;9.93;;;2.22;;
23952;SDS011;12163;49.316;6.092;2023-12-20T05:56:26;17.52;;;3.33;;
23952;SDS011;12163;49.316;6.092;2023-12-20T05:58:52;17.30;;;3.90;;
23952;SDS011;12163;49.316;6.092;2023-12-20T06:01:19;16.80;;;3.50;;
23952;SDS011;12163;49.316;6.092;2023-12-20T06:03:46;14.93;;;3.70;;
23952;SDS011;12163;49.316;6.092;2023-12-20T06:06:12;13.43;;;3.38;;
23952;SDS011;12163;49.316;6.092;2023-12-20T06:08:42;15.10;;;2.80;;
23952;SDS011;12163;49.316;6.092;2023-12-20T06:11:10;11.40;;;3.17;;
23952;SDS011;12163;49.316;6.092;2023-12-20T06:13:36;11.57;;;3.50;;
23952;SDS011;12163;49.316;6.092;2023-12-20T06:16:04;15.50;;;3.00;;
23952;SDS011;12163;49.316;6.092;2023-12-20T06:18:33;13.35;;;3.47;;
23952;SDS011;12163;49.316;6.092;2023-12-20T06:21:00;15.18;;;3.50;;
23952;SDS011;12163;49.316;6.092;2023-12-20T06:23:27;16.90;;;3.90;;
23952;SDS011;12163;49.316;6.092;2023-12-20T06:25:54;17.67;;;4.35;;
23952;SDS011;12163;49.316;6.092;2023-12-20T06:28:20;17.23;;;3.87;;
23952;SDS011;12163;49.316;6.092;2023-12-20T06:30:47;21.13;;;4.60;;
23952;SDS011;12163;49.316;6.092;2023-12-20T06:33:16;15.25;;;4.30;;
23952;SDS011;12163;49.316;6.092;2023-12-20T06:35:42;14.07;;;4.32;;
23952;SDS011;12163;49.316;6.092;2023-12-20T06:38:09;17.58;;;4.45;;
23952;SDS011;12163;49.316;6.092;2023-12-20T06:40:35;17.80;;;4.70;;
23952;SDS011;12163;49.316;6.092;2023-12-20T06:43:02;21.45;;;4.90;;
23952;SDS011;12163;49.316;6.092;2023-12-20T06:45:41;20.80;;;4.68;;
23952;SDS011;12163;49.316;6.092;2023-12-20T06:48:08;16.08;;;5.00;;
23952;SDS011;12163;49.316;6.092;2023-12-20T06:50:37;20.00;;;4.43;;
23952;SDS011;12163;49.316;6.092;2023-12-20T06:53:06;17.85;;;4.70;;
23952;SDS011;12163;49.316;6.092;2023-12-20T06:55:36;19.48;;;4.80;;
23952;SDS011;12163;49.316;6.092;2023-12-20T06:58:04;19.42;;;4.80;;
23952;SDS011;12163;49.316;6.092;2023-12-20T07:00:31;17.75;;;4.57;;
23952;SDS011;12163;49.316;6.092;2023-12-20T07:02:58;14.75;;;4.00;;
23952;SDS011;12163;49.316;6.092;2023-12-20T07:05:25;16.73;;;4.10;;
23952;SDS011;12163;49.316;6.092;2023-12-20T07:07:53;20.50;;;4.68;;
23952;SDS011;12163;49.316;6.092;2023-12-20T07:10:20;22.30;;;5.20;;
23952;SDS011;12163;49.316;6.092;2023-12-20T07:12:46;18.27;;;4.70;;
23952;SDS011;12163;49.316;6.092;2023-12-20T07:15:15;17.95;;;4.15;;
23952;SDS011;12163;49.316;6.092;2023-12-20T07:17:41;22.48;;;4.30;;
23952;SDS011;12163;49.316;6.092;2023-12-20T07:20:09;16.73;;;4.15;;
23952;SDS011;12163;49.316;6.092;2023-12-20T07:22:37;17.17;;;4.30;;
23952;SDS011;12163;49.316;6.092;2023-12-20T07:25:04;17.67;;;4.25;;
23952;SDS011;12163;49.316;6.092;2023-12-20T07:27:31;23.50;;;5.05;;
23952;SDS011;12163;49.316;6.092;2023-12-20T07:29:57;19.17;;;4.85;;
23952;SDS011;12163;49.316;6.092;2023-12-20T07:32:24;21.65;;;5.03;;
23952;SDS011;12163;49.316;6.092;2023-12-20T07:34:51;22.52;;;5.40;;
23952;SDS011;12163;49.316;6.092;2023-12-20T07:37:18;16.55;;;4.90;;
23952;SDS011;12163;49.316;6.092;2023-12-20T07:39:44;17.10;;;5.00;;
23952;SDS011;12163;49.316;6.092;2023-12-20T07:42:11;21.53;;;5.43;;
23952;SDS011;12163;49.316;6.092;2023-12-20T07:44:37;21.85;;;5.95;;
23952;SDS011;12163;49.316;6.092;2023-12-20T07:47:04;20.20;;;5.32;;
23952;SDS011;12163;49.316;6.092;2023-12-20T07:49:31;23.08;;;5.10;;
23952;SDS011;12163;49.316;6.092;2023-12-20T07:51:58;18.40;;;5.30;;
23952;SDS011;12163;49.316;6.092;2023-12-20T07:54:25;21.17;;;5.80;;
23952;SDS011;12163;49.316;6.092;2023-12-20T07:56:51;19.92;;;5.47;;
23952;SDS011;12163;49.316;6.092;2023-12-20T07:59:18;21.02;;;5.07;;
23952;SDS011;12163;49.316;6.092;2023-12-20T08:01:57;17.67;;;4.97;;
23952;SDS011;12163;49.316;6.092;2023-12-20T08:04:24;17.00;;;5.32;;
23952;SDS011;12163;49.316;6.092;2023-12-20T08:06:51;26.23;;;5.57;;
23952;SDS011;12163;49.316;6.092;2023-12-20T08:09:18;23.20;;;5.63;;
23952;SDS011;12163;49.316;6.092;2023-12-20T08:11:46;21.92;;;5.43;;
23952;SDS011;12163;49.316;6.092;2023-12-20T08:14:13;19.30;;;4.90;;
23952;SDS011;12163;49.316;6.092;2023-12-20T08:16:41;19.92;;;5.07;;
23952;SDS011;12163;49.316;6.092;2023-12-20T08:19:07;20.42;;;4.90;;
23952;SDS011;12163;49.316;6.092;2023-12-20T08:21:34;24.35;;;5.32;;
23952;SDS011;12163;49.316;6.092;2023-12-20T08:24:06;19.90;;;4.85;;
23952;SDS011;12163;49.316;6.092;2023-12-20T08:26:33;20.17;;;5.23;;
23952;SDS011;12163;49.316;6.092;2023-12-20T08:29:00;22.33;;;4.90;;
23952;SDS011;12163;49.316;6.092;2023-12-20T08:31:28;24.27;;;5.22;;
23952;SDS011;12163;49.316;6.092;2023-12-20T08:33:55;19.67;;;4.93;;
23952;SDS011;12163;49.316;6.092;2023-12-20T08:36:22;22.55;;;4.95;;
23952;SDS011;12163;49.316;6.092;2023-12-20T08:38:49;21.30;;;4.95;;
23952;SDS011;12163;49.316;6.092;2023-12-20T08:41:17;22.42;;;5.22;;
23952;SDS011;12163;49.316;6.092;2023-12-20T08:43:44;19.50;;;5.03;;
23952;SDS011;12163;49.316;6.092;2023-12-20T08:46:10;18.92;;;5.22;;
23952;SDS011;12163;49.316;6.092;2023-12-20T08:48:38;22.55;;;5.47;;
23952;SDS011;12163;49.316;6.092;2023-12-20T08:51:05;17.52;;;4.60;;
23952;SDS011;12163;49.316;6.092;2023-12-20T08:53:34;22.40;;;5.57;;
23952;SDS011;12163;49.316;6.092;2023-12-20T08:56:01;20.33;;;4.97;;
23952;SDS011;12163;49.316;6.092;2023-12-20T08:58:28;19.85;;;4.93;;
23952;SDS011;12163;49.316;6.092;2023-12-20T09:00:55;23.30;;;5.00;;
23952;SDS011;12163;49.316;6.092;2023-12-20T09:03:22;26.00;;;5.63;;
23952;SDS011;12163;49.316;6.092;2023-12-20T09:05:48;19.33;;;4.72;;
23952;SDS011;12163;49.316;6.092;2023-12-20T09:08:15;18.65;;;4.82;;
23952;SDS011;12163;49.316;6.092;2023-12-20T09:10:41;26.63;;;5.28;;
23952;SDS011;12163;49.316;6.092;2023-12-20T09:13:08;20.00;;;5.25;;
23952;SDS011;12163;49.316;6.092;2023-12-20T09:15:34;20.30;;;5.00;;
23952;SDS011;12163;49.316;6.092;2023-12-20T09:18:02;20.40;;;5.22;;
23952;SDS011;12163;49.316;6.092;2023-12-20T09:20:30;19.65;;;4.43;;
23952;SDS011;12163;49.316;6.092;2023-12-20T09:22:57;22.13;;;5.00;;
23952;SDS011;12163;49.316;6.092;2023-12-20T09:25:25;20.50;;;5.10;;
23952;SDS011;12163;49.316;6.092;2023-12-20T09:27:53;17.33;;;4.65;;
23952;SDS011;12163;49.316;6.092;2023-12-20T09:30:19;20.48;;;4.47;;
23952;SDS011;12163;49.316;6.092;2023-12-20T09:32:53;15.73;;;4.60;;
23952;SDS011;12163;49.316;6.092;2023-12-20T09:35:20;20.40;;;4.25;;
23952;SDS011;12163;49.316;6.092;2023-12-20T09:37:48;20.35;;;4.28;;
23952;SDS011;12163;49.316;6.092;2023-12-20T09:40:14;18.90;;;4.10;;
23952;SDS011;12163;49.316;6.092;2023-12-20T09:42:48;19.58;;;4.40;;
23952;SDS011;12163;49.316;6.092;2023-12-20T09:45:22;18.30;;;4.40;;
23952;SDS011;12163;49.316;6.092;2023-12-20T09:47:50;18.15;;;4.07;;
23952;SDS011;12163;49.316;6.092;2023-12-20T09:50:19;16.40;;;4.00;;
23952;SDS011;12163;49.316;6.092;2023-12-20T09:52:51;21.03;;;4.33;;
23952;SDS011;12163;49.316;6.092;2023-12-20T09:55:19;19.92;;;3.85;;
23952;SDS011;12163;49.316;6.092;2023-12-20T09:57:47;21.75;;;4.38;;
23952;SDS011;12163;49.316;6.092;2023-12-20T10:00:15;24.20;;;4.47;;
23952;SDS011;12163;49.316;6.092;2023-12-20T10:05:31;20.83;;;4.57;;
23952;SDS011;12163;49.316;6.092;2023-12-20T10:07:59;18.87;;;4.10;;
23952;SDS011;12163;49.316;6.092;2023-12-20T10:10:28;20.07;;;4.07;;
23952;SDS011;12163;49.316;6.092;2023-12-20T10:13:10;17.02;;;4.03;;
23952;SDS011;12163;49.316;6.092;2023-12-20T10:15:38;16.77;;;3.95;;
23952;SDS011;12163;49.316;6.092;2023-12-20T10:18:05;17.98;;;4.18;;
23952;SDS011;12163;49.316;6.092;2023-12-20T10:20:32;18.08;;;4.20;;
23952;SDS011;12163;49.316;6.092;2023-12-20T10:23:00;19.52;;;4.20;;
23952;SDS011;12163;49.316;6.092;2023-12-20T10:25:27;20.05;;;4.25;;
23952;SDS011;12163;49.316;6.092;2023-12-20T10:30:38;21.95;;;4.13;;
23952;SDS011;12163;49.316;6.092;2023-12-20T10:33:06;17.50;;;4.15;;
23952;SDS011;12163;49.316;6.092;2023-12-20T10:35:38;22.10;;;3.95;;
23952;SDS011;12163;49.316;6.092;2023-12-20T10:38:10;18.20;;;4.47;;
23952;SDS011;12163;49.316;6.092;2023-12-20T10:40:37;22.17;;;4.70;;
23952;SDS011;12163;49.316;6.092;2023-12-20T10:43:04;19.67;;;3.97;;
23952;SDS011;12163;49.316;6.092;2023-12-20T10:45:32;20.95;;;3.97;;
23952;SDS011;12163;49.316;6.092;2023-12-20T10:47:59;21.65;;;4.72;;
23952;SDS011;12163;49.316;6.092;2023-12-20T10:50:27;17.40;;;3.80;;
23952;SDS011;12163;49.316;6.092;2023-12-20T10:52:55;19.35;;;4.10;;
23952;SDS011;12163;49.316;6.092;2023-12-20T10:55:23;16.33;;;3.90;;
23952;SDS011;12163;49.316;6.092;2023-12-20T10:57:50;22.67;;;4.47;;
23952;SDS011;12163;49.316;6.092;2023-12-20T11:00:18;24.73;;;4.32;;
23952;SDS011;12163;49.316;6.092;2023-12-20T11:02:48;20.67;;;4.13;;
23952;SDS011;12163;49.316;6.092;2023-12-20T11:08:09;17.33;;;3.83;;
23952;SDS011;12163;49.316;6.092;2023-12-20T11:13:17;18.52;;;4.00;;
23952;SDS011;12163;49.316;6.092;2023-12-20T11:15:48;19.40;;;4.47;;
23952;SDS011;12163;49.316;6.092;2023-12-20T11:18:16;19.30;;;3.60;;
23952;SDS011;12163;49.316;6.092;2023-12-20T11:20:42;20.05;;;3.70;;
23952;SDS011;12163;49.316;6.092;2023-12-20T11:23:09;21.63;;;4.30;;
23952;SDS011;12163;49.316;6.092;2023-12-20T11:28:31;19.10;;;3.92;;
23952;SDS011;12163;49.316;6.092;2023-12-20T11:30:58;19.58;;;4.03;;
23952;SDS011;12163;49.316;6.092;2023-12-20T11:33:36;15.63;;;3.63;;
23952;SDS011;12163;49.316;6.092;2023-12-20T11:36:12;16.95;;;3.58;;
23952;SDS011;12163;49.316;6.092;2023-12-20T11:38:53;22.17;;;4.10;;
23952;SDS011;12163;49.316;6.092;2023-12-20T11:41:22;19.77;;;3.87;;
23952;SDS011;12163;49.316;6.092;2023-12-20T11:43:52;16.08;;;3.67;;
23952;SDS011;12163;49.316;6.092;2023-12-20T11:46:19;22.52;;;4.07;;
23952;SDS011;12163;49.316;6.092;2023-12-20T11:48:47;21.92;;;4.03;;
23952;SDS011;12163;49.316;6.092;2023-12-20T11:51:14;16.10;;;3.85;;
23952;SDS011;12163;49.316;6.092;2023-12-20T11:53:41;28.35;;;4.18;;
23952;SDS011;12163;49.316;6.092;2023-12-20T11:56:09;23.55;;;3.70;;
23952;SDS011;12163;49.316;6.092;2023-12-20T11:58:36;22.13;;;4.53;;
23952;SDS011;12163;49.316;6.092;2023-12-20T12:01:03;19.73;;;3.90;;
23952;SDS011;12163;49.316;6.092;2023-12-20T12:03:34;19.80;;;4.10;;
23952;SDS011;12163;49.316;6.092;2023-12-20T12:06:01;21.77;;;4.20;;
23952;SDS011;12163;49.316;6.092;2023-12-20T12:08:29;21.80;;;3.70;;
23952;SDS011;12163;49.316;6.092;2023-12-20T12:10:56;23.13;;;4.03;;
23952;SDS011;12163;49.316;6.092;2023-12-20T12:13:23;19.10;;;3.80;;
23952;SDS011;12163;49.316;6.092;2023-12-20T12:15:53;22.13;;;4.10;;
23952;SDS011;12163;49.316;6.092;2023-12-20T12:18:20;18.52;;;3.80;;
23952;SDS011;12163;49.316;6.092;2023-12-20T12:20:47;17.17;;;4.00;;
23952;SDS011;12163;49.316;6.092;2023-12-20T12:23:14;24.30;;;4.35;;
23952;SDS011;12163;49.316;6.092;2023-12-20T12:25:40;27.25;;;4.50;;
23952;SDS011;12163;49.316;6.092;2023-12-20T12:28:09;20.00;;;3.97;;
23952;SDS011;12163;49.316;6.092;2023-12-20T12:30:36;20.08;;;4.13;;
23952;SDS011;12163;49.316;6.092;2023-12-20T12:33:11;25.80;;;4.53;;
23952;SDS011;12163;49.316;6.092;2023-12-20T12:35:39;20.10;;;3.92;;
23952;SDS011;12163;49.316;6.092;2023-12-20T12:38:07;21.40;;;3.90;;
23952;SDS011;12163;49.316;6.092;2023-12-20T12:40:34;18.90;;;4.03;;
23952;SDS011;12163;49.316;6.092;2023-12-20T12:43:02;24.33;;;4.40;;
23952;SDS011;12163;49.316;6.092;2023-12-20T12:45:30;20.60;;;3.58;;
23952;SDS011;12163;49.316;6.092;2023-12-20T12:47:57;20.88;;;4.18;;
23952;SDS011;12163;49.316;6.092;2023-12-20T12:50:23;18.58;;;4.00;;
23952;SDS011;12163;49.316;6.092;2023-12-20T12:52:50;22.20;;;3.58;;
23952;SDS011;12163;49.316;6.092;2023-12-20T12:55:17;22.55;;;4.15;;
23952;SDS011;12163;49.316;6.092;2023-12-20T12:57:44;22.88;;;4.07;;
23952;SDS011;12163;49.316;6.092;2023-12-20T13:00:11;25.35;;;4.38;;
23952;SDS011;12163;49.316;6.092;2023-12-20T13:02:38;25.45;;;4.70;;
23952;SDS011;12163;49.316;6.092;2023-12-20T13:05:08;24.52;;;4.68;;
23952;SDS011;12163;49.316;6.092;2023-12-20T13:07:35;24.45;;;4.72;;
23952;SDS011;12163;49.316;6.092;2023-12-20T13:10:02;26.02;;;4.68;;
23952;SDS011;12163;49.316;6.092;2023-12-20T13:12:29;24.35;;;4.60;;
23952;SDS011;12163;49.316;6.092;2023-12-20T13:14:56;25.45;;;4.25;;
23952;SDS011;12163;49.316;6.092;2023-12-20T13:17:23;23.60;;;4.27;;
23952;SDS011;12163;49.316;6.092;2023-12-20T13:19:49;24.05;;;4.25;;
23952;SDS011;12163;49.316;6.092;2023-12-20T13:22:16;19.17;;;4.20;;
23952;SDS011;12163;49.316;6.092;2023-12-20T13:24:43;27.33;;;4.00;;
23952;SDS011;12163;49.316;6.092;2023-12-20T13:27:10;24.88;;;4.85;;
23952;SDS011;12163;49.316;6.092;2023-12-20T13:29:37;20.60;;;4.57;;
23952;SDS011;12163;49.316;6.092;2023-12-20T13:32:05;24.13;;;4.47;;
23952;SDS011;12163;49.316;6.092;2023-12-20T13:34:32;24.52;;;4.60;;
23952;SDS011;12163;49.316;6.092;2023-12-20T13:36:59;23.80;;;4.38;;
23952;SDS011;12163;49.316;6.092;2023-12-20T13:39:26;25.80;;;4.72;;
23952;SDS011;12163;49.316;6.092;2023-12-20T13:41:52;21.50;;;4.00;;
23952;SDS011;12163;49.316;6.092;2023-12-20T13:44:19;24.73;;;4.25;;
23952;SDS011;12163;49.316;6.092;2023-12-20T13:46:46;28.70;;;5.07;;
23952;SDS011;12163;49.316;6.092;2023-12-20T13:49:12;25.07;;;4.37;;
23952;SDS011;12163;49.316;6.092;2023-12-20T13:51:40;22.38;;;4.25;;
23952;SDS011;12163;49.316;6.092;2023-12-20T13:54:06;21.48;;;4.47;;
23952;SDS011;12163;49.316;6.092;2023-12-20T13:56:34;23.30;;;4.20;;
23952;SDS011;12163;49.316;6.092;2023-12-20T13:59:13;26.98;;;4.90;;
23952;SDS011;12163;49.316;6.092;2023-12-20T14:01:41;24.53;;;4.40;;
23952;SDS011;12163;49.316;6.092;2023-12-20T14:04:07;25.35;;;4.53;;
23952;SDS011;12163;49.316;6.092;2023-12-20T14:06:34;23.83;;;4.38;;
23952;SDS011;12163;49.316;6.092;2023-12-20T14:09:01;25.02;;;4.80;;
23952;SDS011;12163;49.316;6.092;2023-12-20T14:11:27;25.07;;;4.63;;
23952;SDS011;12163;49.316;6.092;2023-12-20T14:13:54;25.95;;;4.72;;
23952;SDS011;12163;49.316;6.092;2023-12-20T14:16:24;22.27;;;4.17;;
23952;SDS011;12163;49.316;6.092;2023-12-20T14:18:51;22.73;;;4.40;;
23952;SDS011;12163;49.316;6.092;2023-12-20T14:21:23;24.83;;;4.57;;
23952;SDS011;12163;49.316;6.092;2023-12-20T14:23:50;26.27;;;5.07;;
23952;SDS011;12163;49.316;6.092;2023-12-20T14:26:18;21.33;;;4.35;;
23952;SDS011;12163;49.316;6.092;2023-12-20T14:28:44;25.30;;;4.78;;
23952;SDS011;12163;49.316;6.092;2023-12-20T14:31:11;23.17;;;4.43;;
23952;SDS011;12163;49.316;6.092;2023-12-20T14:33:38;21.37;;;4.67;;
23952;SDS011;12163;49.316;6.092;2023-12-20T14:36:05;26.85;;;4.75;;
23952;SDS011;12163;49.316;6.092;2023-12-20T14:38:32;23.30;;;4.75;;
23952;SDS011;12163;49.316;6.092;2023-12-20T14:40:59;27.30;;;4.90;;
23952;SDS011;12163;49.316;6.092;2023-12-20T14:43:25;24.30;;;4.60;;
23952;SDS011;12163;49.316;6.092;2023-12-20T14:45:52;28.77;;;5.37;;
23952;SDS011;12163;49.316;6.092;2023-12-20T14:48:19;21.80;;;4.60;;
23952;SDS011;12163;49.316;6.092;2023-12-20T14:50:47;25.60;;;4.75;;
23952;SDS011;12163;49.316;6.092;2023-12-20T14:53:15;25.23;;;5.30;;